Coal Valley, Illinois
Current Conditions -  °F | °C
As of 3:52 PM on Tuesday 25 Nov 2014 (Local Time) from KMLI Reporting Station
Clear Clear  
Wind Chill: 17°   Ceiling: Unl
Heat Index: 25°   Visibility: 10mi
Dew Point: 17°   Wind: 7mph
Humidity: 72%   Direction: 220°SW
Pressure: 30.15"   Gusts: NA
Location:  41.43°N, 90.46°W
Report Text: KMLI 252152Z 22006KT 10SM CLR M04/M08 A3015 RMK AO2 SLP220 T10391083
Loading
Personal Weather Stations






























Interactive Weather Map New forecast layout! Learn more

10-Day Weather Forecast

Advertisements
Track Severe Weather on mobile